createdAt,value
2023-01-17T00:00:06.941Z,12.60
2023-01-17T00:02:33.475Z,13.60
2023-01-17T00:05:00.023Z,14.40
2023-01-17T00:07:27.233Z,15.40
2023-01-17T00:09:53.729Z,14.00
2023-01-17T00:12:21.168Z,14.20
2023-01-17T00:14:48.049Z,13.40
2023-01-17T00:17:14.535Z,10.80
2023-01-17T00:19:40.985Z,12.60
2023-01-17T00:22:31.351Z,14.00
2023-01-17T00:24:57.805Z,15.10
2023-01-17T00:27:24.292Z,14.60
2023-01-17T00:29:50.964Z,11.70
2023-01-17T00:32:17.495Z,14.60
2023-01-17T00:34:43.964Z,14.90
2023-01-17T00:37:10.701Z,14.70
2023-01-17T00:39:37.165Z,14.30
2023-01-17T00:42:03.693Z,14.50
2023-01-17T00:44:30.157Z,15.30
2023-01-17T00:46:56.655Z,13.50
2023-01-17T00:49:23.143Z,14.10
2023-01-17T00:51:49.803Z,13.40
2023-01-17T00:54:18.910Z,14.60
2023-01-17T00:56:45.824Z,13.10
2023-01-17T00:59:12.286Z,13.90
2023-01-17T01:01:38.911Z,14.00
2023-01-17T01:04:05.488Z,13.90
2023-01-17T01:06:31.946Z,14.30
2023-01-17T01:08:58.431Z,13.40
2023-01-17T01:11:24.914Z,11.40
2023-01-17T01:13:51.476Z,13.10
2023-01-17T01:16:19.877Z,13.60
2023-01-17T01:18:46.524Z,12.00
2023-01-17T01:21:12.981Z,12.30
2023-01-17T01:23:39.577Z,13.80
2023-01-17T01:26:06.036Z,14.00
2023-01-17T01:28:32.553Z,14.10
2023-01-17T01:31:00.268Z,12.40
2023-01-17T01:33:26.739Z,12.00
2023-01-17T01:35:55.257Z,13.20
2023-01-17T01:38:24.443Z,14.20
2023-01-17T01:40:54.126Z,13.40
2023-01-17T01:43:48.098Z,12.80
2023-01-17T01:46:25.788Z,13.40
2023-01-17T01:49:00.461Z,13.40
2023-01-17T01:51:35.061Z,16.10
2023-01-17T01:54:10.398Z,15.40
2023-01-17T01:56:38.964Z,12.70
2023-01-17T01:59:09.757Z,13.30
2023-01-17T02:01:37.122Z,14.30
2023-01-17T02:04:05.534Z,13.70
2023-01-17T02:06:42.095Z,13.70
2023-01-17T02:09:11.912Z,12.30
2023-01-17T02:11:39.882Z,13.80
2023-01-17T02:14:06.556Z,14.50
2023-01-17T02:16:46.907Z,12.00
2023-01-17T02:19:13.339Z,13.80
2023-01-17T02:21:46.199Z,14.40
2023-01-17T02:24:24.635Z,14.00
2023-01-17T02:26:56.582Z,12.10
2023-01-17T02:29:26.095Z,15.10
2023-01-17T02:32:01.029Z,12.90
2023-01-17T02:34:38.619Z,14.10
2023-01-17T02:37:15.167Z,14.60
2023-01-17T02:39:56.027Z,14.30
2023-01-17T02:42:40.307Z,12.70
2023-01-17T02:45:07.203Z,13.90
2023-01-17T02:47:33.949Z,12.50
2023-01-17T02:50:07.062Z,13.50
2023-01-17T02:53:22.757Z,13.40
2023-01-17T02:55:59.044Z,13.10
2023-01-17T02:58:53.228Z,10.40
2023-01-17T03:01:38.433Z,13.10
2023-01-17T03:04:33.922Z,12.50
2023-01-17T03:07:06.006Z,11.30
2023-01-17T03:09:33.448Z,10.20
2023-01-17T03:12:00.350Z,11.10
2023-01-17T03:14:30.060Z,11.80
2023-01-17T03:16:56.569Z,12.70
2023-01-17T03:19:23.088Z,11.40
2023-01-17T03:21:49.538Z,11.50
2023-01-17T03:24:16.016Z,10.80
2023-01-17T03:26:42.465Z,11.60
2023-01-17T03:29:08.933Z,10.70
2023-01-17T03:31:35.469Z,10.90
2023-01-17T03:34:02.106Z,9.80
2023-01-17T03:36:28.567Z,8.20
2023-01-17T03:38:55.036Z,9.30
2023-01-17T03:41:21.474Z,9.50
2023-01-17T03:43:47.935Z,11.00
2023-01-17T03:46:23.529Z,9.50
2023-01-17T03:48:50.465Z,8.90
2023-01-17T03:51:17.252Z,8.10
2023-01-17T03:53:44.431Z,9.20
2023-01-17T03:56:10.887Z,8.50
2023-01-17T03:58:37.371Z,9.00
2023-01-17T04:01:04.628Z,8.20
2023-01-17T04:03:31.348Z,7.10
2023-01-17T04:05:57.875Z,6.50
2023-01-17T04:08:24.467Z,7.30
2023-01-17T04:10:50.927Z,7.90
2023-01-17T04:13:17.395Z,8.70
2023-01-17T04:15:48.863Z,8.00
2023-01-17T04:18:17.670Z,5.80
2023-01-17T04:20:44.375Z,8.70
2023-01-17T04:23:11.163Z,8.20
2023-01-17T04:25:37.800Z,7.70
2023-01-17T04:28:04.406Z,8.60
2023-01-17T04:30:32.620Z,8.00
2023-01-17T04:32:59.223Z,7.70
2023-01-17T04:35:25.928Z,6.20
2023-01-17T04:37:52.901Z,7.10
2023-01-17T04:40:19.508Z,6.70
2023-01-17T04:42:46.276Z,6.90
2023-01-17T04:45:13.268Z,7.10
2023-01-17T04:47:40.115Z,6.30
2023-01-17T04:50:07.491Z,6.30
2023-01-17T04:52:33.965Z,5.60
2023-01-17T04:55:00.448Z,7.10
2023-01-17T04:57:26.932Z,6.40
2023-01-17T04:59:53.419Z,5.70
2023-01-17T05:02:20.250Z,6.30
2023-01-17T05:04:46.757Z,5.40
2023-01-17T05:07:13.728Z,5.20
2023-01-17T05:09:40.199Z,4.90
2023-01-17T05:12:06.687Z,4.30
2023-01-17T05:14:33.139Z,5.00
2023-01-17T05:16:59.736Z,5.20
2023-01-17T05:19:27.298Z,4.50
2023-01-17T05:21:53.812Z,5.40
2023-01-17T05:24:20.764Z,5.20
2023-01-17T05:26:49.627Z,5.00
2023-01-17T05:29:16.732Z,5.80
2023-01-17T05:31:43.187Z,5.30
2023-01-17T05:34:09.805Z,6.20
2023-01-17T05:36:36.282Z,5.70
2023-01-17T05:39:02.757Z,6.50
2023-01-17T05:41:29.253Z,5.90
2023-01-17T05:43:55.807Z,5.90
2023-01-17T05:46:22.444Z,5.90
2023-01-17T05:48:48.923Z,7.70
2023-01-17T05:51:15.373Z,7.30
2023-01-17T05:53:41.994Z,7.10
2023-01-17T05:56:08.476Z,6.70
2023-01-17T05:58:34.960Z,7.70
2023-01-17T06:01:01.522Z,8.00
2023-01-17T06:03:27.999Z,6.50
2023-01-17T06:05:54.492Z,7.10
2023-01-17T06:08:21.179Z,7.30
2023-01-17T06:10:47.796Z,7.20
2023-01-17T06:13:14.517Z,6.40
2023-01-17T06:15:41.452Z,6.00
2023-01-17T06:18:13.008Z,6.00
2023-01-17T06:20:40.223Z,6.60
2023-01-17T06:23:09.817Z,7.30
2023-01-17T06:25:41.844Z,6.20
2023-01-17T06:28:08.373Z,5.70
2023-01-17T06:30:35.427Z,4.60
2023-01-17T06:33:02.325Z,4.90
2023-01-17T06:35:29.285Z,5.10
2023-01-17T06:37:56.166Z,5.30
2023-01-17T06:40:22.846Z,5.50
2023-01-17T06:42:49.354Z,4.50
2023-01-17T06:45:15.973Z,4.30
2023-01-17T06:47:42.817Z,4.20
2023-01-17T06:50:11.980Z,3.30
2023-01-17T06:52:38.457Z,4.50
2023-01-17T06:55:05.451Z,6.90
2023-01-17T06:57:31.967Z,5.20
2023-01-17T06:59:58.450Z,4.30
2023-01-17T07:02:24.972Z,4.20
2023-01-17T07:04:51.511Z,3.70
2023-01-17T07:07:17.999Z,4.10
2023-01-17T07:09:44.578Z,3.50
2023-01-17T07:12:11.071Z,4.00
2023-01-17T07:14:37.653Z,4.10
2023-01-17T07:17:04.347Z,4.30
2023-01-17T07:19:30.852Z,3.90
2023-01-17T07:21:57.299Z,3.40
2023-01-17T07:24:23.793Z,3.90
2023-01-17T07:26:51.432Z,3.70
2023-01-17T07:29:18.599Z,3.90
2023-01-17T07:31:45.164Z,3.80
2023-01-17T07:34:11.632Z,3.90
2023-01-17T07:36:38.098Z,3.80
2023-01-17T07:39:06.311Z,4.70
2023-01-17T07:41:33.794Z,4.30
2023-01-17T07:44:00.320Z,3.80
2023-01-17T07:46:27.157Z,4.00
2023-01-17T07:48:53.621Z,3.90
2023-01-17T07:51:20.089Z,4.10
2023-01-17T07:53:46.560Z,4.60
2023-01-17T07:56:13.206Z,3.90
2023-01-17T07:58:39.810Z,4.10
2023-01-17T08:01:09.829Z,3.70
2023-01-17T08:03:36.780Z,3.30
2023-01-17T08:06:03.430Z,3.90
2023-01-17T08:08:29.945Z,4.80
2023-01-17T08:10:56.450Z,4.30
2023-01-17T08:13:23.273Z,3.90
2023-01-17T08:15:51.004Z,4.10
2023-01-17T08:18:18.064Z,4.80
2023-01-17T08:20:44.802Z,4.10
2023-01-17T08:23:11.459Z,3.90
2023-01-17T08:25:38.511Z,3.30
2023-01-17T08:28:05.314Z,4.00
2023-01-17T08:30:31.796Z,3.40
2023-01-17T08:32:58.277Z,3.30
2023-01-17T08:35:25.194Z,2.90
2023-01-17T08:37:55.153Z,2.90
2023-01-17T08:40:22.578Z,2.90
2023-01-17T08:42:57.115Z,2.90
2023-01-17T08:45:24.332Z,3.00
2023-01-17T08:47:51.246Z,3.00
2023-01-17T08:50:18.207Z,3.00
2023-01-17T08:52:44.741Z,2.80
2023-01-17T08:55:11.224Z,2.70
2023-01-17T08:57:37.700Z,1.90
2023-01-17T09:00:04.523Z,2.00
2023-01-17T09:02:30.999Z,1.90
2023-01-17T09:04:57.594Z,1.40
2023-01-17T09:07:24.253Z,1.60
2023-01-17T09:09:50.734Z,1.60
2023-01-17T09:12:17.235Z,1.50
2023-01-17T09:14:43.745Z,1.80
2023-01-17T09:17:10.243Z,1.50
2023-01-17T09:19:36.708Z,1.60
2023-01-17T09:22:05.141Z,1.70
2023-01-17T09:24:31.740Z,1.50
2023-01-17T09:26:58.275Z,1.70
2023-01-17T09:29:24.780Z,2.50
2023-01-17T09:31:51.266Z,5.70
2023-01-17T09:34:17.747Z,5.40
2023-01-17T09:36:44.802Z,1.60
2023-01-17T09:39:11.683Z,1.60
2023-01-17T09:41:52.159Z,1.80
2023-01-17T09:44:45.943Z,2.10
2023-01-17T09:47:45.219Z,1.80
2023-01-17T09:50:17.658Z,1.80
2023-01-17T09:52:44.708Z,2.60
2023-01-17T09:55:16.669Z,1.80
2023-01-17T09:57:52.292Z,1.60
2023-01-17T10:00:46.515Z,1.80
2023-01-17T10:03:13.132Z,1.60
2023-01-17T10:05:50.698Z,1.50
2023-01-17T10:08:45.072Z,1.30
2023-01-17T10:11:17.193Z,1.40
2023-01-17T10:14:25.305Z,1.40
2023-01-17T10:17:05.754Z,1.90
2023-01-17T10:19:53.374Z,1.50
2023-01-17T10:22:42.494Z,1.70
2023-01-17T10:25:20.863Z,1.90
2023-01-17T10:27:56.209Z,2.20
2023-01-17T10:30:30.011Z,1.90
2023-01-17T10:33:01.088Z,1.80
2023-01-17T10:35:33.436Z,1.60
2023-01-17T10:38:04.136Z,1.70
2023-01-17T10:40:42.652Z,1.70
2023-01-17T10:43:40.025Z,1.90
2023-01-17T10:46:15.757Z,2.00
2023-01-17T10:48:45.705Z,1.90
2023-01-17T10:51:18.429Z,2.10
2023-01-17T10:53:56.935Z,1.90
2023-01-17T10:56:27.786Z,1.70
2023-01-17T10:59:09.930Z,1.60
2023-01-17T11:01:36.443Z,1.90
2023-01-17T11:04:03.915Z,1.80
2023-01-17T11:06:30.413Z,1.90
2023-01-17T11:08:59.840Z,2.00
2023-01-17T11:11:32.069Z,1.80
2023-01-17T11:14:01.001Z,1.60
2023-01-17T11:16:30.832Z,1.80
2023-01-17T11:19:32.063Z,1.90
2023-01-17T11:22:04.245Z,2.60
2023-01-17T11:24:41.204Z,1.80
2023-01-17T11:27:23.109Z,2.30
2023-01-17T11:30:03.599Z,2.00
2023-01-17T11:32:32.599Z,2.20
2023-01-17T11:35:25.836Z,2.10
2023-01-17T11:37:58.699Z,2.10
2023-01-17T11:40:46.372Z,2.50
2023-01-17T11:43:12.776Z,2.60
2023-01-17T11:45:40.491Z,2.20
2023-01-17T11:48:09.955Z,2.20
2023-01-17T11:50:53.770Z,1.80
2023-01-17T11:53:24.684Z,1.90
2023-01-17T11:56:19.460Z,2.50
2023-01-17T11:58:46.376Z,2.30
2023-01-17T12:01:34.819Z,2.10
2023-01-17T12:04:20.055Z,2.00
2023-01-17T12:07:17.088Z,1.80
2023-01-17T12:10:19.163Z,1.90
2023-01-17T12:13:04.292Z,2.10
2023-01-17T12:15:33.813Z,2.10
2023-01-17T12:18:29.805Z,1.70
2023-01-17T12:21:02.378Z,1.70
2023-01-17T12:23:53.415Z,1.60
2023-01-17T12:26:42.345Z,2.00
2023-01-17T12:29:17.858Z,1.60
2023-01-17T12:31:56.091Z,1.90
2023-01-17T12:34:39.984Z,4.30
2023-01-17T12:37:27.953Z,4.20
2023-01-17T12:40:05.006Z,2.80
2023-01-17T12:42:37.717Z,2.00
2023-01-17T12:45:17.553Z,2.00
2023-01-17T12:47:50.178Z,2.20
2023-01-17T12:50:32.390Z,2.00
2023-01-17T12:53:07.466Z,2.00
2023-01-17T12:55:33.893Z,2.30
2023-01-17T12:58:03.906Z,2.80
2023-01-17T13:00:33.040Z,2.70
2023-01-17T13:03:11.879Z,2.50
2023-01-17T13:05:47.829Z,2.00
2023-01-17T13:08:24.609Z,2.20
2023-01-17T13:11:11.895Z,2.30
2023-01-17T13:13:40.943Z,2.10
2023-01-17T13:16:12.602Z,2.00
2023-01-17T13:18:47.342Z,2.00
2023-01-17T13:21:33.900Z,1.90
2023-01-17T13:24:05.536Z,2.30
2023-01-17T13:29:12.560Z,2.00
2023-01-17T13:31:48.872Z,2.40
2023-01-17T13:34:18.377Z,2.00
2023-01-17T13:37:25.061Z,2.00
2023-01-17T13:40:10.752Z,4.00
2023-01-17T13:42:52.488Z,4.50
2023-01-17T13:47:50.577Z,6.70
2023-01-17T13:50:38.577Z,18.70
2023-01-17T13:53:36.149Z,8.20
2023-01-17T13:56:02.542Z,8.00
2023-01-17T13:58:30.142Z,10.20
2023-01-17T14:00:56.726Z,9.90
2023-01-17T14:03:50.920Z,4.50
2023-01-17T14:06:36.390Z,3.20
2023-01-17T14:09:11.709Z,3.40
2023-01-17T14:11:59.508Z,2.90
2023-01-17T14:14:46.833Z,2.20
2023-01-17T14:17:16.093Z,2.60
2023-01-17T14:19:46.805Z,2.80
2023-01-17T14:22:19.345Z,2.90
2023-01-17T14:25:04.682Z,3.00
2023-01-17T14:27:33.591Z,3.10
2023-01-17T14:30:04.894Z,2.90
2023-01-17T14:32:35.097Z,3.00
2023-01-17T14:35:05.405Z,2.50
2023-01-17T14:37:31.879Z,2.70
2023-01-17T14:40:00.036Z,2.90
2023-01-17T14:42:29.440Z,2.90
2023-01-17T14:45:03.090Z,2.60
2023-01-17T14:47:33.444Z,2.60
2023-01-17T14:50:29.701Z,3.00
2023-01-17T14:53:11.205Z,2.90
2023-01-17T14:55:38.462Z,3.30
2023-01-17T14:58:05.029Z,3.20
2023-01-17T15:00:31.508Z,3.00
2023-01-17T15:02:58.838Z,3.00
2023-01-17T15:05:27.816Z,3.90
2023-01-17T15:07:57.325Z,3.50
2023-01-17T15:10:28.237Z,4.00
2023-01-17T15:12:56.424Z,4.50
2023-01-17T15:15:34.716Z,4.10
2023-01-17T15:18:27.623Z,3.90
2023-01-17T15:21:01.166Z,3.80
2023-01-17T15:23:36.158Z,3.50
2023-01-17T15:26:05.974Z,3.10
2023-01-17T15:28:33.834Z,3.50
2023-01-17T15:31:01.924Z,3.70
2023-01-17T15:33:31.257Z,3.30
2023-01-17T15:36:11.138Z,3.20
2023-01-17T15:38:40.429Z,3.40
2023-01-17T15:41:15.822Z,3.30
2023-01-17T15:43:44.578Z,5.70
2023-01-17T15:46:28.435Z,5.20
2023-01-17T15:49:05.887Z,4.30
2023-01-17T15:51:38.681Z,3.70
2023-01-17T15:54:42.424Z,3.70
2023-01-17T15:57:25.529Z,3.70
2023-01-17T16:00:06.641Z,3.60
2023-01-17T16:02:43.746Z,4.00
2023-01-17T16:05:25.565Z,4.00
2023-01-17T16:07:57.335Z,3.90
2023-01-17T16:10:28.423Z,3.90
2023-01-17T16:12:55.530Z,4.40
2023-01-17T16:15:23.414Z,4.10
2023-01-17T16:17:53.454Z,4.00
2023-01-17T16:20:23.312Z,4.70
2023-01-17T16:22:50.266Z,3.30
2023-01-17T16:25:19.926Z,4.40
2023-01-17T16:27:47.074Z,3.50
2023-01-17T16:30:16.865Z,3.40
2023-01-17T16:32:48.120Z,4.60
2023-01-17T16:35:23.493Z,3.80
2023-01-17T16:38:16.263Z,3.80
2023-01-17T16:40:44.873Z,4.20
2023-01-17T16:43:12.779Z,3.90
2023-01-17T16:45:47.664Z,3.60
2023-01-17T16:48:14.703Z,3.90
2023-01-17T16:50:46.734Z,3.90
2023-01-17T16:53:14.087Z,3.30
2023-01-17T16:55:42.039Z,3.90
2023-01-17T16:58:08.618Z,4.30
2023-01-17T17:00:35.071Z,3.80
2023-01-17T17:03:01.571Z,4.00
2023-01-17T17:05:28.096Z,3.60
2023-01-17T17:07:54.805Z,4.10
2023-01-17T17:10:22.252Z,3.90
2023-01-17T17:12:48.724Z,3.90
2023-01-17T17:15:15.186Z,3.50
2023-01-17T17:17:43.319Z,3.60
2023-01-17T17:20:13.102Z,3.50
2023-01-17T17:22:49.076Z,7.30
2023-01-17T17:25:16.114Z,3.80
2023-01-17T17:27:42.775Z,3.40
2023-01-17T17:30:10.287Z,3.30
2023-01-17T17:32:39.502Z,4.00
2023-01-17T17:35:09.295Z,3.70
2023-01-17T17:37:35.832Z,3.50
2023-01-17T17:40:02.323Z,3.50
2023-01-17T17:42:28.758Z,3.70
2023-01-17T17:44:55.209Z,3.90
2023-01-17T17:47:21.696Z,3.20
2023-01-17T17:49:48.152Z,3.60
2023-01-17T17:52:14.603Z,3.40
2023-01-17T17:54:41.722Z,3.80
2023-01-17T17:57:09.093Z,3.20
2023-01-17T17:59:35.574Z,3.30
2023-01-17T18:02:02.191Z,3.40
2023-01-17T18:04:28.746Z,2.90
2023-01-17T18:06:57.316Z,3.10
2023-01-17T18:09:26.456Z,3.30
2023-01-17T18:11:54.589Z,3.00
2023-01-17T18:14:21.333Z,3.30
2023-01-17T18:16:47.915Z,3.50
2023-01-17T18:19:18.087Z,4.90
2023-01-17T18:21:44.799Z,5.20
2023-01-17T18:24:14.103Z,3.70
2023-01-17T18:26:46.647Z,4.40
2023-01-17T18:29:15.325Z,6.40
2023-01-17T18:31:46.184Z,5.50
2023-01-17T18:34:14.936Z,6.30
2023-01-17T18:36:42.015Z,6.00
2023-01-17T18:39:17.468Z,5.80
2023-01-17T18:41:44.115Z,4.80
2023-01-17T18:44:11.246Z,4.50
2023-01-17T18:46:38.128Z,4.80
2023-01-17T18:49:05.025Z,4.60
2023-01-17T18:51:32.994Z,3.80
2023-01-17T18:53:59.513Z,4.90
2023-01-17T18:56:25.981Z,3.90
2023-01-17T18:58:52.454Z,3.50
2023-01-17T19:01:22.714Z,3.00
2023-01-17T19:03:51.784Z,3.60
2023-01-17T19:06:21.556Z,3.00
2023-01-17T19:08:48.032Z,3.30
2023-01-17T19:11:15.155Z,3.50
2023-01-17T19:13:41.652Z,3.90
2023-01-17T19:16:12.995Z,3.70
2023-01-17T19:18:41.985Z,3.40
2023-01-17T19:21:11.285Z,3.20
2023-01-17T19:23:38.218Z,5.30
2023-01-17T19:26:07.408Z,4.90
2023-01-17T19:28:36.641Z,3.30
2023-01-17T19:31:15.919Z,3.80
2023-01-17T19:33:44.624Z,3.60
2023-01-17T19:36:14.194Z,3.60
2023-01-17T19:38:40.681Z,3.60
2023-01-17T19:41:15.062Z,3.80
2023-01-17T19:43:42.348Z,4.10
2023-01-17T19:46:10.556Z,3.70
2023-01-17T19:48:39.213Z,3.90
2023-01-17T19:51:11.276Z,3.20
2023-01-17T19:53:39.560Z,3.40
2023-01-17T19:56:11.098Z,3.10
2023-01-17T19:58:38.607Z,3.40
2023-01-17T20:01:10.337Z,2.80
2023-01-17T20:03:37.953Z,3.40
2023-01-17T20:06:06.172Z,4.20
2023-01-17T20:08:33.993Z,2.90
2023-01-17T20:11:02.015Z,2.70
2023-01-17T20:13:28.623Z,2.40
2023-01-17T20:15:55.103Z,2.40
2023-01-17T20:18:21.638Z,2.90
2023-01-17T20:20:56.901Z,2.20
2023-01-17T20:23:24.063Z,1.80
2023-01-17T20:25:54.550Z,2.30
2023-01-17T20:28:20.994Z,2.50
2023-01-17T20:30:47.467Z,1.60
2023-01-17T20:33:13.893Z,1.60
2023-01-17T20:35:40.335Z,2.00
2023-01-17T20:38:06.840Z,2.00
2023-01-17T20:40:33.304Z,2.00
2023-01-17T20:42:59.769Z,2.00
2023-01-17T20:45:26.224Z,1.80
2023-01-17T20:47:52.695Z,1.80
2023-01-17T20:50:19.135Z,1.90
2023-01-17T20:52:45.621Z,1.50
2023-01-17T20:55:15.079Z,1.50
2023-01-17T20:57:41.610Z,1.60
2023-01-17T21:00:08.817Z,1.90
2023-01-17T21:02:35.362Z,1.70
2023-01-17T21:05:01.832Z,1.50
2023-01-17T21:07:28.316Z,1.90
2023-01-17T21:09:54.763Z,2.30
2023-01-17T21:12:21.218Z,1.90
2023-01-17T21:14:48.105Z,2.00
2023-01-17T21:17:14.582Z,2.30
2023-01-17T21:19:41.188Z,2.10
2023-01-17T21:22:07.670Z,2.00
2023-01-17T21:24:36.255Z,2.20
2023-01-17T21:27:02.710Z,1.80
2023-01-17T21:29:29.184Z,2.10
2023-01-17T21:31:56.161Z,2.00
2023-01-17T21:34:25.270Z,1.70
2023-01-17T21:36:51.991Z,2.10
2023-01-17T21:39:19.172Z,2.20
2023-01-17T21:41:48.197Z,2.00
2023-01-17T21:44:22.952Z,2.00
2023-01-17T21:46:50.044Z,1.90
2023-01-17T21:49:16.492Z,1.80
2023-01-17T21:51:43.549Z,2.00
2023-01-17T21:54:10.095Z,2.40
2023-01-17T21:56:36.538Z,2.10
2023-01-17T21:59:03.008Z,1.90
2023-01-17T22:01:32.899Z,2.30
2023-01-17T22:04:03.526Z,2.30
2023-01-17T22:06:33.787Z,1.90
2023-01-17T22:09:00.306Z,2.10
2023-01-17T22:11:27.592Z,2.70
2023-01-17T22:13:54.259Z,2.20
2023-01-17T22:16:23.039Z,2.90
2023-01-17T22:18:50.463Z,2.40
2023-01-17T22:21:23.616Z,2.70
2023-01-17T22:23:52.334Z,2.70
2023-01-17T22:26:20.665Z,2.50
2023-01-17T22:28:47.288Z,2.30
2023-01-17T22:31:19.524Z,2.80
2023-01-17T22:33:47.553Z,2.50
2023-01-17T22:36:15.212Z,2.90
2023-01-17T22:38:43.254Z,3.60
2023-01-17T22:41:21.330Z,4.00
2023-01-17T22:43:53.405Z,3.40
2023-01-17T22:46:22.944Z,3.30
2023-01-17T22:48:49.825Z,3.30
2023-01-17T22:51:18.248Z,2.90
2023-01-17T22:53:50.249Z,2.70
2023-01-17T22:56:19.125Z,3.60
2023-01-17T22:58:46.078Z,3.00
2023-01-17T23:01:14.412Z,2.90
2023-01-17T23:03:41.765Z,3.00
2023-01-17T23:06:20.145Z,2.30
2023-01-17T23:08:49.796Z,2.40
2023-01-17T23:11:30.511Z,2.70
2023-01-17T23:13:57.015Z,2.70
2023-01-17T23:16:23.503Z,2.30
2023-01-17T23:18:49.991Z,2.50
2023-01-17T23:21:16.464Z,3.10
2023-01-17T23:23:42.905Z,3.00
2023-01-17T23:26:09.391Z,2.70
2023-01-17T23:28:35.926Z,2.80
2023-01-17T23:31:02.993Z,3.50
2023-01-17T23:33:29.479Z,3.30
2023-01-17T23:35:55.931Z,3.10
2023-01-17T23:38:22.395Z,3.20
2023-01-17T23:40:49.164Z,3.00
2023-01-17T23:43:15.619Z,3.10
2023-01-17T23:45:42.323Z,3.30
2023-01-17T23:48:09.690Z,2.70
2023-01-17T23:50:37.601Z,2.70
2023-01-17T23:53:04.459Z,2.60
2023-01-17T23:55:30.919Z,2.60
2023-01-17T23:57:57.373Z,2.60
